sensor_id;sensor_type;location;lat;lon;timestamp;temperature;humidity
306;DHT22;137;48.578;9.180;2023-01-08T00:00:12;3.70;98.20
306;DHT22;137;48.578;9.180;2023-01-08T00:02:39;3.70;98.20
306;DHT22;137;48.578;9.180;2023-01-08T00:05:06;3.70;98.20
306;DHT22;137;48.578;9.180;2023-01-08T00:07:35;3.70;98.20
306;DHT22;137;48.578;9.180;2023-01-08T00:10:03;3.70;98.20
306;DHT22;137;48.578;9.180;2023-01-08T00:12:29;3.70;98.20
306;DHT22;137;48.578;9.180;2023-01-08T00:14:57;3.80;98.20
306;DHT22;137;48.578;9.180;2023-01-08T00:17:24;3.70;98.20
306;DHT22;137;48.578;9.180;2023-01-08T00:19:53;3.70;98.20
306;DHT22;137;48.578;9.180;2023-01-08T00:22:20;3.70;98.20
306;DHT22;137;48.578;9.180;2023-01-08T00:24:47;3.60;98.20
306;DHT22;137;48.578;9.180;2023-01-08T00:27:13;3.60;98.20
306;DHT22;137;48.578;9.180;2023-01-08T00:29:40;3.60;98.20
306;DHT22;137;48.578;9.180;2023-01-08T00:32:08;3.60;98.20
306;DHT22;137;48.578;9.180;2023-01-08T00:34:35;3.60;98.20
306;DHT22;137;48.578;9.180;2023-01-08T00:37:04;3.60;98.20
306;DHT22;137;48.578;9.180;2023-01-08T00:39:31;3.60;98.20
306;DHT22;137;48.578;9.180;2023-01-08T00:41:58;3.60;98.20
306;DHT22;137;48.578;9.180;2023-01-08T00:44:25;3.60;98.20
306;DHT22;137;48.578;9.180;2023-01-08T00:46:51;3.60;98.20
306;DHT22;137;48.578;9.180;2023-01-08T00:49:19;3.60;98.20
306;DHT22;137;48.578;9.180;2023-01-08T00:51:46;3.70;98.20
306;DHT22;137;48.578;9.180;2023-01-08T00:54:13;3.70;98.20
306;DHT22;137;48.578;9.180;2023-01-08T00:56:40;3.70;98.20
306;DHT22;137;48.578;9.180;2023-01-08T00:59:07;3.70;98.20
306;DHT22;137;48.578;9.180;2023-01-08T01:01:33;3.70;98.20
306;DHT22;137;48.578;9.180;2023-01-08T01:04:00;3.70;98.20
306;DHT22;137;48.578;9.180;2023-01-08T01:06:28;3.70;98.20
306;DHT22;137;48.578;9.180;2023-01-08T01:08:55;3.70;98.20
306;DHT22;137;48.578;9.180;2023-01-08T01:11:24;3.70;98.20
306;DHT22;137;48.578;9.180;2023-01-08T01:13:53;3.70;98.20
306;DHT22;137;48.578;9.180;2023-01-08T01:16:20;3.70;98.20
306;DHT22;137;48.578;9.180;2023-01-08T01:18:47;3.70;98.20
306;DHT22;137;48.578;9.180;2023-01-08T01:21:20;3.70;98.20
306;DHT22;137;48.578;9.180;2023-01-08T01:23:49;3.70;98.20
306;DHT22;137;48.578;9.180;2023-01-08T01:26:20;3.80;98.20
306;DHT22;137;48.578;9.180;2023-01-08T01:28:48;3.70;98.20
306;DHT22;137;48.578;9.180;2023-01-08T01:31:15;3.70;98.20
306;DHT22;137;48.578;9.180;2023-01-08T01:33:43;3.80;98.20
306;DHT22;137;48.578;9.180;2023-01-08T01:36:10;3.80;98.20
306;DHT22;137;48.578;9.180;2023-01-08T01:38:37;3.80;98.20
306;DHT22;137;48.578;9.180;2023-01-08T01:41:05;3.80;98.20
306;DHT22;137;48.578;9.180;2023-01-08T01:43:37;3.80;98.20
306;DHT22;137;48.578;9.180;2023-01-08T01:46:15;3.80;98.20
306;DHT22;137;48.578;9.180;2023-01-08T01:48:42;3.80;98.20
306;DHT22;137;48.578;9.180;2023-01-08T01:51:09;3.90;98.20
306;DHT22;137;48.578;9.180;2023-01-08T01:53:36;3.90;98.20
306;DHT22;137;48.578;9.180;2023-01-08T01:56:07;4.00;98.20
306;DHT22;137;48.578;9.180;2023-01-08T01:58:35;4.10;98.20
306;DHT22;137;48.578;9.180;2023-01-08T02:01:04;4.10;98.20
306;DHT22;137;48.578;9.180;2023-01-08T02:03:33;4.20;98.20
306;DHT22;137;48.578;9.180;2023-01-08T02:06:09;4.30;98.20
306;DHT22;137;48.578;9.180;2023-01-08T02:08:41;4.30;98.20
306;DHT22;137;48.578;9.180;2023-01-08T02:11:17;4.40;98.20
306;DHT22;137;48.578;9.180;2023-01-08T02:13:50;4.40;98.20
306;DHT22;137;48.578;9.180;2023-01-08T02:16:24;4.50;98.20
306;DHT22;137;48.578;9.180;2023-01-08T02:18:56;4.60;98.20
306;DHT22;137;48.578;9.180;2023-01-08T02:21:28;4.60;98.20
306;DHT22;137;48.578;9.180;2023-01-08T02:24:01;4.60;98.20
306;DHT22;137;48.578;9.180;2023-01-08T02:26:31;4.70;98.20
306;DHT22;137;48.578;9.180;2023-01-08T02:29:02;4.70;98.20
306;DHT22;137;48.578;9.180;2023-01-08T02:31:31;4.70;98.20
306;DHT22;137;48.578;9.180;2023-01-08T02:33:59;4.70;98.20
306;DHT22;137;48.578;9.180;2023-01-08T02:36:36;4.70;98.20
306;DHT22;137;48.578;9.180;2023-01-08T02:39:14;4.70;98.20
306;DHT22;137;48.578;9.180;2023-01-08T02:41:53;4.70;98.20
306;DHT22;137;48.578;9.180;2023-01-08T02:44:24;4.90;98.20
306;DHT22;137;48.578;9.180;2023-01-08T02:46:56;4.90;98.20
306;DHT22;137;48.578;9.180;2023-01-08T02:49:28;4.90;98.20
306;DHT22;137;48.578;9.180;2023-01-08T02:51:56;4.90;98.20
306;DHT22;137;48.578;9.180;2023-01-08T02:54:28;4.90;98.20
306;DHT22;137;48.578;9.180;2023-01-08T02:57:00;4.90;98.20
306;DHT22;137;48.578;9.180;2023-01-08T02:59:30;4.90;98.20
306;DHT22;137;48.578;9.180;2023-01-08T03:01:58;4.90;98.20
306;DHT22;137;48.578;9.180;2023-01-08T03:04:27;4.90;98.20
306;DHT22;137;48.578;9.180;2023-01-08T03:06:56;4.90;98.20
306;DHT22;137;48.578;9.180;2023-01-08T03:09:23;4.90;98.20
306;DHT22;137;48.578;9.180;2023-01-08T03:11:52;4.90;98.20
306;DHT22;137;48.578;9.180;2023-01-08T03:14:25;4.90;98.20
306;DHT22;137;48.578;9.180;2023-01-08T03:16:57;4.90;98.20
306;DHT22;137;48.578;9.180;2023-01-08T03:19:30;5.00;98.20
306;DHT22;137;48.578;9.180;2023-01-08T03:21:59;5.00;98.20
306;DHT22;137;48.578;9.180;2023-01-08T03:24:30;5.10;98.20
306;DHT22;137;48.578;9.180;2023-01-08T03:27:01;5.10;98.20
306;DHT22;137;48.578;9.180;2023-01-08T03:29:31;5.00;98.20
306;DHT22;137;48.578;9.180;2023-01-08T03:32:01;5.00;98.20
306;DHT22;137;48.578;9.180;2023-01-08T03:34:30;5.00;98.20
306;DHT22;137;48.578;9.180;2023-01-08T03:36:59;5.00;98.20
306;DHT22;137;48.578;9.180;2023-01-08T03:39:30;5.00;98.20
306;DHT22;137;48.578;9.180;2023-01-08T03:42:03;5.10;98.20
306;DHT22;137;48.578;9.180;2023-01-08T03:44:33;5.20;98.20
306;DHT22;137;48.578;9.180;2023-01-08T03:47:01;5.20;98.20
306;DHT22;137;48.578;9.180;2023-01-08T03:49:28;5.20;98.20
306;DHT22;137;48.578;9.180;2023-01-08T03:51:56;5.20;98.20
306;DHT22;137;48.578;9.180;2023-01-08T03:54:24;5.30;98.20
306;DHT22;137;48.578;9.180;2023-01-08T03:56:55;5.20;98.20
306;DHT22;137;48.578;9.180;2023-01-08T03:59:21;5.20;98.20
306;DHT22;137;48.578;9.180;2023-01-08T04:01:50;5.10;98.20
306;DHT22;137;48.578;9.180;2023-01-08T04:04:17;5.10;98.20
306;DHT22;137;48.578;9.180;2023-01-08T04:06:43;5.00;98.20
306;DHT22;137;48.578;9.180;2023-01-08T04:09:10;5.00;98.20
306;DHT22;137;48.578;9.180;2023-01-08T04:11:37;4.90;98.20
306;DHT22;137;48.578;9.180;2023-01-08T04:14:04;4.90;98.20
306;DHT22;137;48.578;9.180;2023-01-08T04:16:31;4.90;98.20
306;DHT22;137;48.578;9.180;2023-01-08T04:19:00;4.90;98.20
306;DHT22;137;48.578;9.180;2023-01-08T04:21:27;4.80;98.20
306;DHT22;137;48.578;9.180;2023-01-08T04:23:54;4.90;98.20
306;DHT22;137;48.578;9.180;2023-01-08T04:26:21;5.00;98.20
306;DHT22;137;48.578;9.180;2023-01-08T04:28:47;5.00;98.20
306;DHT22;137;48.578;9.180;2023-01-08T04:31:14;5.10;98.20
306;DHT22;137;48.578;9.180;2023-01-08T04:33:41;5.20;98.20
306;DHT22;137;48.578;9.180;2023-01-08T04:36:09;5.20;98.20
306;DHT22;137;48.578;9.180;2023-01-08T04:38:36;5.20;98.20
306;DHT22;137;48.578;9.180;2023-01-08T04:41:03;5.20;98.20
306;DHT22;137;48.578;9.180;2023-01-08T04:43:30;5.20;98.20
306;DHT22;137;48.578;9.180;2023-01-08T04:45:58;5.20;98.20
306;DHT22;137;48.578;9.180;2023-01-08T04:48:25;5.20;98.20
306;DHT22;137;48.578;9.180;2023-01-08T04:50:52;5.10;98.20
306;DHT22;137;48.578;9.180;2023-01-08T04:53:20;5.10;98.20
306;DHT22;137;48.578;9.180;2023-01-08T04:55:47;5.20;98.20
306;DHT22;137;48.578;9.180;2023-01-08T04:58:14;5.30;98.20
306;DHT22;137;48.578;9.180;2023-01-08T05:00:40;5.50;98.20
306;DHT22;137;48.578;9.180;2023-01-08T05:03:07;5.70;98.20
306;DHT22;137;48.578;9.180;2023-01-08T05:05:34;5.80;98.20
306;DHT22;137;48.578;9.180;2023-01-08T05:08:01;6.00;98.20
306;DHT22;137;48.578;9.180;2023-01-08T05:10:29;6.00;98.20
306;DHT22;137;48.578;9.180;2023-01-08T05:12:57;6.10;98.20
306;DHT22;137;48.578;9.180;2023-01-08T05:15:24;6.00;98.20
306;DHT22;137;48.578;9.180;2023-01-08T05:17:57;6.10;98.20
306;DHT22;137;48.578;9.180;2023-01-08T05:20:24;6.10;98.20
306;DHT22;137;48.578;9.180;2023-01-08T05:22:51;6.10;98.20
306;DHT22;137;48.578;9.180;2023-01-08T05:25:18;6.00;98.20
306;DHT22;137;48.578;9.180;2023-01-08T05:27:46;6.20;98.20
306;DHT22;137;48.578;9.180;2023-01-08T05:30:13;6.20;98.20
306;DHT22;137;48.578;9.180;2023-01-08T05:32:40;6.00;98.20
306;DHT22;137;48.578;9.180;2023-01-08T05:35:07;5.80;98.20
306;DHT22;137;48.578;9.180;2023-01-08T05:37:35;5.60;98.20
306;DHT22;137;48.578;9.180;2023-01-08T05:40:02;5.30;98.20
306;DHT22;137;48.578;9.180;2023-01-08T05:42:29;5.10;98.20
306;DHT22;137;48.578;9.180;2023-01-08T05:44:57;5.00;98.20
306;DHT22;137;48.578;9.180;2023-01-08T05:47:27;4.80;98.20
306;DHT22;137;48.578;9.180;2023-01-08T05:49:54;4.70;98.20
306;DHT22;137;48.578;9.180;2023-01-08T05:52:21;4.80;98.20
306;DHT22;137;48.578;9.180;2023-01-08T05:54:48;4.90;98.20
306;DHT22;137;48.578;9.180;2023-01-08T05:57:14;4.80;98.20
306;DHT22;137;48.578;9.180;2023-01-08T05:59:41;4.90;98.20
306;DHT22;137;48.578;9.180;2023-01-08T06:02:09;4.80;98.20
306;DHT22;137;48.578;9.180;2023-01-08T06:04:36;4.80;98.20
306;DHT22;137;48.578;9.180;2023-01-08T06:07:03;4.80;98.20
306;DHT22;137;48.578;9.180;2023-01-08T06:09:30;5.00;98.20
306;DHT22;137;48.578;9.180;2023-01-08T06:11:57;5.10;98.20
306;DHT22;137;48.578;9.180;2023-01-08T06:14:23;5.30;98.20
306;DHT22;137;48.578;9.180;2023-01-08T06:16:50;5.50;98.20
306;DHT22;137;48.578;9.180;2023-01-08T06:19:18;5.50;98.20
306;DHT22;137;48.578;9.180;2023-01-08T06:21:45;5.70;98.20
306;DHT22;137;48.578;9.180;2023-01-08T06:24:12;5.90;98.20
306;DHT22;137;48.578;9.180;2023-01-08T06:26:38;6.00;98.20
306;DHT22;137;48.578;9.180;2023-01-08T06:29:05;6.00;98.20
306;DHT22;137;48.578;9.180;2023-01-08T06:31:32;6.00;98.20
306;DHT22;137;48.578;9.180;2023-01-08T06:34:00;5.80;98.20
306;DHT22;137;48.578;9.180;2023-01-08T06:36:28;5.50;98.20
306;DHT22;137;48.578;9.180;2023-01-08T06:38:55;5.50;98.20
306;DHT22;137;48.578;9.180;2023-01-08T06:41:22;5.40;98.20
306;DHT22;137;48.578;9.180;2023-01-08T06:43:48;5.40;98.20
306;DHT22;137;48.578;9.180;2023-01-08T06:46:15;5.50;98.20
306;DHT22;137;48.578;9.180;2023-01-08T06:48:42;5.50;98.20
306;DHT22;137;48.578;9.180;2023-01-08T06:51:09;5.70;98.20
306;DHT22;137;48.578;9.180;2023-01-08T06:53:37;5.80;98.20
306;DHT22;137;48.578;9.180;2023-01-08T06:56:04;5.90;98.20
306;DHT22;137;48.578;9.180;2023-01-08T06:58:33;5.90;98.20
306;DHT22;137;48.578;9.180;2023-01-08T07:01:00;6.00;98.20
306;DHT22;137;48.578;9.180;2023-01-08T07:03:27;6.10;98.20
306;DHT22;137;48.578;9.180;2023-01-08T07:05:54;6.10;98.20
306;DHT22;137;48.578;9.180;2023-01-08T07:08:21;6.20;98.20
306;DHT22;137;48.578;9.180;2023-01-08T07:10:49;6.20;98.20
306;DHT22;137;48.578;9.180;2023-01-08T07:13:16;6.30;98.20
306;DHT22;137;48.578;9.180;2023-01-08T07:15:42;6.40;98.20
306;DHT22;137;48.578;9.180;2023-01-08T07:18:10;6.50;98.20
306;DHT22;137;48.578;9.180;2023-01-08T07:20:37;6.50;98.20
306;DHT22;137;48.578;9.180;2023-01-08T07:23:06;6.60;98.20
306;DHT22;137;48.578;9.180;2023-01-08T07:25:34;6.70;98.20
306;DHT22;137;48.578;9.180;2023-01-08T07:28:03;6.80;98.20
306;DHT22;137;48.578;9.180;2023-01-08T07:30:29;6.90;98.20
306;DHT22;137;48.578;9.180;2023-01-08T07:33:00;7.00;98.20
306;DHT22;137;48.578;9.180;2023-01-08T07:35:27;7.00;98.20
306;DHT22;137;48.578;9.180;2023-01-08T07:37:54;7.10;98.20
306;DHT22;137;48.578;9.180;2023-01-08T07:40:21;7.20;98.20
306;DHT22;137;48.578;9.180;2023-01-08T07:42:47;7.20;98.20
306;DHT22;137;48.578;9.180;2023-01-08T07:45:16;7.20;98.20
306;DHT22;137;48.578;9.180;2023-01-08T07:47:42;7.20;98.20
306;DHT22;137;48.578;9.180;2023-01-08T07:50:09;7.30;98.20
306;DHT22;137;48.578;9.180;2023-01-08T07:52:36;7.40;98.20
306;DHT22;137;48.578;9.180;2023-01-08T07:55:03;7.40;98.20
306;DHT22;137;48.578;9.180;2023-01-08T07:57:30;7.50;98.20
306;DHT22;137;48.578;9.180;2023-01-08T07:59:56;7.50;98.20
306;DHT22;137;48.578;9.180;2023-01-08T08:02:25;7.50;98.20
306;DHT22;137;48.578;9.180;2023-01-08T08:04:51;7.50;98.20
306;DHT22;137;48.578;9.180;2023-01-08T08:07:18;7.60;98.20
306;DHT22;137;48.578;9.180;2023-01-08T08:09:45;7.60;98.20
306;DHT22;137;48.578;9.180;2023-01-08T08:12:13;7.60;98.20
306;DHT22;137;48.578;9.180;2023-01-08T08:14:40;7.60;98.20
306;DHT22;137;48.578;9.180;2023-01-08T08:17:08;7.60;98.20
306;DHT22;137;48.578;9.180;2023-01-08T08:19:36;7.70;98.20
306;DHT22;137;48.578;9.180;2023-01-08T08:22:03;7.60;98.20
306;DHT22;137;48.578;9.180;2023-01-08T08:24:29;7.70;98.20
306;DHT22;137;48.578;9.180;2023-01-08T08:26:56;7.70;98.20
306;DHT22;137;48.578;9.180;2023-01-08T08:29:23;7.60;98.20
306;DHT22;137;48.578;9.180;2023-01-08T08:31:49;7.70;98.20
306;DHT22;137;48.578;9.180;2023-01-08T08:34:16;7.80;98.20
306;DHT22;137;48.578;9.180;2023-01-08T08:36:46;7.70;98.20
306;DHT22;137;48.578;9.180;2023-01-08T08:39:12;7.70;98.20
306;DHT22;137;48.578;9.180;2023-01-08T08:41:39;7.80;98.20
306;DHT22;137;48.578;9.180;2023-01-08T08:44:07;7.80;98.20
306;DHT22;137;48.578;9.180;2023-01-08T08:46:33;7.80;98.20
306;DHT22;137;48.578;9.180;2023-01-08T08:49:00;7.90;98.20
306;DHT22;137;48.578;9.180;2023-01-08T08:51:27;7.90;98.20
306;DHT22;137;48.578;9.180;2023-01-08T08:53:55;7.80;98.20
306;DHT22;137;48.578;9.180;2023-01-08T08:56:22;7.90;98.20
306;DHT22;137;48.578;9.180;2023-01-08T08:58:49;7.90;98.20
306;DHT22;137;48.578;9.180;2023-01-08T09:01:16;7.90;98.20
306;DHT22;137;48.578;9.180;2023-01-08T09:03:43;8.00;98.20
306;DHT22;137;48.578;9.180;2023-01-08T09:06:12;8.00;98.20
306;DHT22;137;48.578;9.180;2023-01-08T09:08:39;8.00;98.20
306;DHT22;137;48.578;9.180;2023-01-08T09:11:07;8.10;98.20
306;DHT22;137;48.578;9.180;2023-01-08T09:13:35;8.10;98.20
306;DHT22;137;48.578;9.180;2023-01-08T09:16:03;8.10;98.20
306;DHT22;137;48.578;9.180;2023-01-08T09:18:30;8.20;98.20
306;DHT22;137;48.578;9.180;2023-01-08T09:20:57;8.20;98.20
306;DHT22;137;48.578;9.180;2023-01-08T09:23:24;8.20;98.20
306;DHT22;137;48.578;9.180;2023-01-08T09:25:58;8.20;98.20
306;DHT22;137;48.578;9.180;2023-01-08T09:28:26;8.30;98.20
306;DHT22;137;48.578;9.180;2023-01-08T09:30:53;8.40;98.20
306;DHT22;137;48.578;9.180;2023-01-08T09:33:19;8.50;98.20
306;DHT22;137;48.578;9.180;2023-01-08T09:35:46;8.50;98.20
306;DHT22;137;48.578;9.180;2023-01-08T09:38:13;8.60;98.20
306;DHT22;137;48.578;9.180;2023-01-08T09:40:43;8.60;98.20
306;DHT22;137;48.578;9.180;2023-01-08T09:43:17;8.70;98.20
306;DHT22;137;48.578;9.180;2023-01-08T09:45:49;8.70;98.20
306;DHT22;137;48.578;9.180;2023-01-08T09:48:17;8.60;98.20
306;DHT22;137;48.578;9.180;2023-01-08T09:50:47;8.60;98.20
306;DHT22;137;48.578;9.180;2023-01-08T09:53:15;8.50;98.20
306;DHT22;137;48.578;9.180;2023-01-08T09:55:44;8.50;98.20
306;DHT22;137;48.578;9.180;2023-01-08T09:58:20;8.50;98.20
306;DHT22;137;48.578;9.180;2023-01-08T10:00:50;8.50;98.20
306;DHT22;137;48.578;9.180;2023-01-08T10:03:17;8.50;98.20
306;DHT22;137;48.578;9.180;2023-01-08T10:05:44;8.60;98.20
306;DHT22;137;48.578;9.180;2023-01-08T10:08:13;8.60;98.20
306;DHT22;137;48.578;9.180;2023-01-08T10:10:40;8.70;98.20
306;DHT22;137;48.578;9.180;2023-01-08T10:13:10;8.60;98.20
306;DHT22;137;48.578;9.180;2023-01-08T10:15:39;8.70;98.20
306;DHT22;137;48.578;9.180;2023-01-08T10:18:12;8.70;98.20
306;DHT22;137;48.578;9.180;2023-01-08T10:20:40;8.70;98.20
306;DHT22;137;48.578;9.180;2023-01-08T10:23:09;8.80;98.20
306;DHT22;137;48.578;9.180;2023-01-08T10:25:48;8.80;98.20
306;DHT22;137;48.578;9.180;2023-01-08T10:28:19;8.80;98.20
306;DHT22;137;48.578;9.180;2023-01-08T10:30:46;8.90;98.20
306;DHT22;137;48.578;9.180;2023-01-08T10:33:18;9.00;98.20
306;DHT22;137;48.578;9.180;2023-01-08T10:35:53;9.00;98.20
306;DHT22;137;48.578;9.180;2023-01-08T10:38:26;9.10;98.20
306;DHT22;137;48.578;9.180;2023-01-08T10:40:54;9.10;98.20
306;DHT22;137;48.578;9.180;2023-01-08T10:43:25;9.20;98.20
306;DHT22;137;48.578;9.180;2023-01-08T10:45:58;9.20;98.20
306;DHT22;137;48.578;9.180;2023-01-08T10:48:31;9.40;98.20
306;DHT22;137;48.578;9.180;2023-01-08T10:51:11;9.40;98.20
306;DHT22;137;48.578;9.180;2023-01-08T10:53:39;9.50;98.20
306;DHT22;137;48.578;9.180;2023-01-08T10:56:17;9.60;98.20
306;DHT22;137;48.578;9.180;2023-01-08T10:58:44;9.70;98.20
306;DHT22;137;48.578;9.180;2023-01-08T11:01:15;9.70;98.20
306;DHT22;137;48.578;9.180;2023-01-08T11:03:48;9.90;98.20
306;DHT22;137;48.578;9.180;2023-01-08T11:06:20;9.90;98.20
306;DHT22;137;48.578;9.180;2023-01-08T11:08:49;10.00;98.20
306;DHT22;137;48.578;9.180;2023-01-08T11:11:17;10.10;98.20
306;DHT22;137;48.578;9.180;2023-01-08T11:13:55;10.10;98.20
306;DHT22;137;48.578;9.180;2023-01-08T11:16:30;10.10;98.20
306;DHT22;137;48.578;9.180;2023-01-08T11:18:59;10.20;98.20
306;DHT22;137;48.578;9.180;2023-01-08T11:21:28;10.20;98.20
306;DHT22;137;48.578;9.180;2023-01-08T11:24:14;10.40;98.20
306;DHT22;137;48.578;9.180;2023-01-08T11:26:47;10.50;98.20
306;DHT22;137;48.578;9.180;2023-01-08T11:29:20;10.50;98.20
306;DHT22;137;48.578;9.180;2023-01-08T11:31:52;10.60;98.20
306;DHT22;137;48.578;9.180;2023-01-08T11:34:27;10.50;98.20
306;DHT22;137;48.578;9.180;2023-01-08T11:37:00;10.60;98.20
306;DHT22;137;48.578;9.180;2023-01-08T11:39:29;10.70;98.20
306;DHT22;137;48.578;9.180;2023-01-08T11:42:14;10.70;98.20
306;DHT22;137;48.578;9.180;2023-01-08T11:44:54;10.80;98.20
306;DHT22;137;48.578;9.180;2023-01-08T11:47:31;10.90;98.20
306;DHT22;137;48.578;9.180;2023-01-08T11:50:15;10.90;98.20
306;DHT22;137;48.578;9.180;2023-01-08T11:53:09;10.90;98.20
306;DHT22;137;48.578;9.180;2023-01-08T11:55:51;10.90;98.20
306;DHT22;137;48.578;9.180;2023-01-08T11:58:27;11.00;98.20
306;DHT22;137;48.578;9.180;2023-01-08T12:01:17;11.00;98.20
306;DHT22;137;48.578;9.180;2023-01-08T12:03:53;11.00;98.20
306;DHT22;137;48.578;9.180;2023-01-08T12:06:33;10.90;98.20
306;DHT22;137;48.578;9.180;2023-01-08T12:09:14;10.80;98.20
306;DHT22;137;48.578;9.180;2023-01-08T12:11:48;10.90;98.20
306;DHT22;137;48.578;9.180;2023-01-08T12:14:38;10.90;98.20
306;DHT22;137;48.578;9.180;2023-01-08T12:20:10;10.60;98.20
306;DHT22;137;48.578;9.180;2023-01-08T12:22:46;10.70;98.20
306;DHT22;137;48.578;9.180;2023-01-08T12:25:25;10.70;98.20
306;DHT22;137;48.578;9.180;2023-01-08T12:28:01;10.80;98.20
306;DHT22;137;48.578;9.180;2023-01-08T12:30:41;10.90;98.20
306;DHT22;137;48.578;9.180;2023-01-08T12:33:15;10.90;98.20
306;DHT22;137;48.578;9.180;2023-01-08T12:35:52;10.90;98.20
306;DHT22;137;48.578;9.180;2023-01-08T12:38:26;10.80;98.20
306;DHT22;137;48.578;9.180;2023-01-08T12:40:56;10.80;98.20
306;DHT22;137;48.578;9.180;2023-01-08T12:43:29;10.90;98.20
306;DHT22;137;48.578;9.180;2023-01-08T12:45:58;10.80;98.20
306;DHT22;137;48.578;9.180;2023-01-08T12:48:29;10.80;98.20
306;DHT22;137;48.578;9.180;2023-01-08T12:51:00;10.80;98.20
306;DHT22;137;48.578;9.180;2023-01-08T12:53:37;10.80;98.20
306;DHT22;137;48.578;9.180;2023-01-08T12:56:10;10.80;98.20
306;DHT22;137;48.578;9.180;2023-01-08T12:58:58;10.90;98.20
306;DHT22;137;48.578;9.180;2023-01-08T13:01:35;10.90;98.20
306;DHT22;137;48.578;9.180;2023-01-08T13:04:07;10.90;98.20
306;DHT22;137;48.578;9.180;2023-01-08T13:06:34;11.00;98.20
306;DHT22;137;48.578;9.180;2023-01-08T13:09:03;11.00;98.20
306;DHT22;137;48.578;9.180;2023-01-08T13:11:32;10.90;98.20
306;DHT22;137;48.578;9.180;2023-01-08T13:14:04;10.90;98.20
306;DHT22;137;48.578;9.180;2023-01-08T13:16:35;10.70;98.20
306;DHT22;137;48.578;9.180;2023-01-08T13:19:04;10.60;98.20
306;DHT22;137;48.578;9.180;2023-01-08T13:21:34;10.60;98.20
306;DHT22;137;48.578;9.180;2023-01-08T13:24:06;10.50;98.20
306;DHT22;137;48.578;9.180;2023-01-08T13:26:34;10.50;98.20
306;DHT22;137;48.578;9.180;2023-01-08T13:29:06;10.50;98.20
306;DHT22;137;48.578;9.180;2023-01-08T13:31:38;10.50;98.20
306;DHT22;137;48.578;9.180;2023-01-08T13:34:18;10.50;98.20
306;DHT22;137;48.578;9.180;2023-01-08T13:36:54;10.40;98.20
306;DHT22;137;48.578;9.180;2023-01-08T13:39:30;10.50;98.20
306;DHT22;137;48.578;9.180;2023-01-08T13:42:00;10.50;98.20
306;DHT22;137;48.578;9.180;2023-01-08T13:44:29;10.50;98.20
306;DHT22;137;48.578;9.180;2023-01-08T13:47:00;10.60;98.20
306;DHT22;137;48.578;9.180;2023-01-08T13:49:32;10.70;98.20
306;DHT22;137;48.578;9.180;2023-01-08T13:52:00;10.90;98.20
306;DHT22;137;48.578;9.180;2023-01-08T13:54:34;11.30;98.20
306;DHT22;137;48.578;9.180;2023-01-08T13:57:06;11.70;98.20
306;DHT22;137;48.578;9.180;2023-01-08T13:59:38;12.10;98.20
306;DHT22;137;48.578;9.180;2023-01-08T14:02:25;12.30;98.20
306;DHT22;137;48.578;9.180;2023-01-08T14:04:53;12.40;98.20
306;DHT22;137;48.578;9.180;2023-01-08T14:07:21;12.40;98.20
306;DHT22;137;48.578;9.180;2023-01-08T14:09:50;12.40;98.20
306;DHT22;137;48.578;9.180;2023-01-08T14:12:19;12.30;98.20
306;DHT22;137;48.578;9.180;2023-01-08T14:14:49;12.10;98.20
306;DHT22;137;48.578;9.180;2023-01-08T14:17:18;11.70;98.20
306;DHT22;137;48.578;9.180;2023-01-08T14:19:46;11.50;98.20
306;DHT22;137;48.578;9.180;2023-01-08T14:22:17;11.40;98.20
306;DHT22;137;48.578;9.180;2023-01-08T14:24:51;11.30;98.20
306;DHT22;137;48.578;9.180;2023-01-08T14:27:21;11.30;98.20
306;DHT22;137;48.578;9.180;2023-01-08T14:29:48;11.20;98.20
306;DHT22;137;48.578;9.180;2023-01-08T14:32:16;11.10;98.20
306;DHT22;137;48.578;9.180;2023-01-08T14:34:44;11.10;98.20
306;DHT22;137;48.578;9.180;2023-01-08T14:37:12;11.00;98.20
306;DHT22;137;48.578;9.180;2023-01-08T14:39:39;10.80;98.20
306;DHT22;137;48.578;9.180;2023-01-08T14:42:09;10.80;98.20
306;DHT22;137;48.578;9.180;2023-01-08T14:44:57;10.80;98.20
306;DHT22;137;48.578;9.180;2023-01-08T14:47:29;10.80;98.20
306;DHT22;137;48.578;9.180;2023-01-08T14:49:56;10.70;98.20
306;DHT22;137;48.578;9.180;2023-01-08T14:52:23;10.70;98.20
306;DHT22;137;48.578;9.180;2023-01-08T14:54:52;10.70;98.20
306;DHT22;137;48.578;9.180;2023-01-08T14:57:21;10.70;98.20
306;DHT22;137;48.578;9.180;2023-01-08T14:59:52;10.60;98.20
306;DHT22;137;48.578;9.180;2023-01-08T15:02:25;10.50;98.20
306;DHT22;137;48.578;9.180;2023-01-08T15:05:01;10.50;98.20
306;DHT22;137;48.578;9.180;2023-01-08T15:07:28;10.60;98.20
306;DHT22;137;48.578;9.180;2023-01-08T15:09:56;10.50;98.20
306;DHT22;137;48.578;9.180;2023-01-08T15:12:26;10.50;98.20
306;DHT22;137;48.578;9.180;2023-01-08T15:14:53;10.40;98.20
306;DHT22;137;48.578;9.180;2023-01-08T15:17:22;10.40;98.20
306;DHT22;137;48.578;9.180;2023-01-08T15:19:53;10.40;98.20
306;DHT22;137;48.578;9.180;2023-01-08T15:22:24;10.30;98.20
306;DHT22;137;48.578;9.180;2023-01-08T15:24:55;10.20;98.20
306;DHT22;137;48.578;9.180;2023-01-08T15:27:25;10.10;98.20
306;DHT22;137;48.578;9.180;2023-01-08T15:29:54;10.00;98.20
306;DHT22;137;48.578;9.180;2023-01-08T15:32:28;9.90;98.20
306;DHT22;137;48.578;9.180;2023-01-08T15:34:57;9.90;98.20
306;DHT22;137;48.578;9.180;2023-01-08T15:37:24;9.80;98.20
306;DHT22;137;48.578;9.180;2023-01-08T15:39:51;9.80;98.20
306;DHT22;137;48.578;9.180;2023-01-08T15:42:19;9.80;98.20
306;DHT22;137;48.578;9.180;2023-01-08T15:45:12;9.70;98.20
306;DHT22;137;48.578;9.180;2023-01-08T15:47:39;9.70;98.20
306;DHT22;137;48.578;9.180;2023-01-08T15:50:07;9.70;98.20
306;DHT22;137;48.578;9.180;2023-01-08T15:52:36;9.60;98.20
306;DHT22;137;48.578;9.180;2023-01-08T15:55:04;9.70;98.20
306;DHT22;137;48.578;9.180;2023-01-08T15:57:31;9.60;98.20
306;DHT22;137;48.578;9.180;2023-01-08T15:59:58;9.70;98.20
306;DHT22;137;48.578;9.180;2023-01-08T16:02:26;9.60;98.20
306;DHT22;137;48.578;9.180;2023-01-08T16:04:55;9.70;98.20
306;DHT22;137;48.578;9.180;2023-01-08T16:07:23;9.70;98.20
306;DHT22;137;48.578;9.180;2023-01-08T16:09:49;9.80;98.20
306;DHT22;137;48.578;9.180;2023-01-08T16:12:16;9.80;98.20
306;DHT22;137;48.578;9.180;2023-01-08T16:14:43;9.80;98.20
306;DHT22;137;48.578;9.180;2023-01-08T16:17:10;9.70;98.20
306;DHT22;137;48.578;9.180;2023-01-08T16:19:38;9.70;98.20
306;DHT22;137;48.578;9.180;2023-01-08T16:22:04;9.80;98.20
306;DHT22;137;48.578;9.180;2023-01-08T16:24:31;9.70;98.20
306;DHT22;137;48.578;9.180;2023-01-08T16:26:59;9.70;98.20
306;DHT22;137;48.578;9.180;2023-01-08T16:29:26;9.70;98.20
306;DHT22;137;48.578;9.180;2023-01-08T16:31:53;9.70;98.20
306;DHT22;137;48.578;9.180;2023-01-08T16:34:20;9.70;98.20
306;DHT22;137;48.578;9.180;2023-01-08T16:36:48;9.60;98.20
306;DHT22;137;48.578;9.180;2023-01-08T16:39:15;9.60;98.20
306;DHT22;137;48.578;9.180;2023-01-08T16:41:42;9.70;98.20
306;DHT22;137;48.578;9.180;2023-01-08T16:44:16;9.70;98.20
306;DHT22;137;48.578;9.180;2023-01-08T16:46:44;9.60;98.20
306;DHT22;137;48.578;9.180;2023-01-08T16:49:11;9.60;98.20
306;DHT22;137;48.578;9.180;2023-01-08T16:51:38;9.60;98.20
306;DHT22;137;48.578;9.180;2023-01-08T16:54:09;9.60;98.20
306;DHT22;137;48.578;9.180;2023-01-08T16:56:36;9.60;98.20
306;DHT22;137;48.578;9.180;2023-01-08T16:59:03;9.60;98.20
306;DHT22;137;48.578;9.180;2023-01-08T17:01:30;9.60;98.20
306;DHT22;137;48.578;9.180;2023-01-08T17:03:57;9.40;98.20